sensor_id;sensor_type;location;lat;lon;timestamp;P1;durP1;ratioP1;P2;durP2;ratioP2
71475;SDS011;59286;59.274;17.974;2024-03-25T00:01:43;4.00;;;1.90;;
71475;SDS011;59286;59.274;17.974;2024-03-25T00:04:08;2.28;;;1.70;;
71475;SDS011;59286;59.274;17.974;2024-03-25T00:06:33;4.70;;;1.92;;
71475;SDS011;59286;59.274;17.974;2024-03-25T00:09:03;4.40;;;2.00;;
71475;SDS011;59286;59.274;17.974;2024-03-25T00:11:28;4.97;;;1.80;;
71475;SDS011;59286;59.274;17.974;2024-03-25T00:13:54;4.07;;;1.80;;
71475;SDS011;59286;59.274;17.974;2024-03-25T00:16:19;7.45;;;2.20;;
71475;SDS011;59286;59.274;17.974;2024-03-25T00:18:44;3.60;;;2.08;;
71475;SDS011;59286;59.274;17.974;2024-03-25T00:21:10;5.15;;;2.25;;
71475;SDS011;59286;59.274;17.974;2024-03-25T00:23:35;4.22;;;2.08;;
71475;SDS011;59286;59.274;17.974;2024-03-25T00:26:00;2.40;;;1.77;;
71475;SDS011;59286;59.274;17.974;2024-03-25T00:28:25;2.65;;;1.90;;
71475;SDS011;59286;59.274;17.974;2024-03-25T00:30:51;4.68;;;2.03;;
71475;SDS011;59286;59.274;17.974;2024-03-25T00:33:16;5.00;;;1.90;;
71475;SDS011;59286;59.274;17.974;2024-03-25T00:35:42;4.97;;;2.20;;
71475;SDS011;59286;59.274;17.974;2024-03-25T00:38:08;3.47;;;1.90;;
71475;SDS011;59286;59.274;17.974;2024-03-25T00:40:33;2.67;;;2.03;;
71475;SDS011;59286;59.274;17.974;2024-03-25T00:42:59;2.90;;;1.80;;
71475;SDS011;59286;59.274;17.974;2024-03-25T00:45:24;2.38;;;1.85;;
71475;SDS011;59286;59.274;17.974;2024-03-25T00:47:55;4.68;;;2.08;;
71475;SDS011;59286;59.274;17.974;2024-03-25T00:50:21;3.42;;;2.05;;
71475;SDS011;59286;59.274;17.974;2024-03-25T00:52:46;3.60;;;2.05;;
71475;SDS011;59286;59.274;17.974;2024-03-25T00:55:12;2.58;;;1.77;;
71475;SDS011;59286;59.274;17.974;2024-03-25T00:57:37;6.03;;;2.08;;
71475;SDS011;59286;59.274;17.974;2024-03-25T01:00:02;5.45;;;2.10;;
71475;SDS011;59286;59.274;17.974;2024-03-25T01:02:29;3.45;;;2.25;;
71475;SDS011;59286;59.274;17.974;2024-03-25T01:04:55;5.85;;;2.17;;
71475;SDS011;59286;59.274;17.974;2024-03-25T01:07:21;3.03;;;2.08;;
71475;SDS011;59286;59.274;17.974;2024-03-25T01:09:47;5.55;;;2.17;;
71475;SDS011;59286;59.274;17.974;2024-03-25T01:12:12;3.53;;;1.90;;
71475;SDS011;59286;59.274;17.974;2024-03-25T01:14:37;3.40;;;2.15;;
71475;SDS011;59286;59.274;17.974;2024-03-25T01:17:03;3.65;;;2.13;;
71475;SDS011;59286;59.274;17.974;2024-03-25T01:19:29;4.03;;;2.15;;
71475;SDS011;59286;59.274;17.974;2024-03-25T01:21:54;4.05;;;2.45;;
71475;SDS011;59286;59.274;17.974;2024-03-25T01:24:19;4.65;;;2.13;;
71475;SDS011;59286;59.274;17.974;2024-03-25T01:26:45;2.83;;;2.08;;
71475;SDS011;59286;59.274;17.974;2024-03-25T01:29:10;6.43;;;2.30;;
71475;SDS011;59286;59.274;17.974;2024-03-25T01:31:35;4.45;;;2.10;;
71475;SDS011;59286;59.274;17.974;2024-03-25T01:34:01;3.30;;;2.30;;
71475;SDS011;59286;59.274;17.974;2024-03-25T01:36:26;4.45;;;2.03;;
71475;SDS011;59286;59.274;17.974;2024-03-25T01:38:52;2.75;;;1.55;;
71475;SDS011;59286;59.274;17.974;2024-03-25T01:41:20;6.45;;;1.80;;
71475;SDS011;59286;59.274;17.974;2024-03-25T01:43:48;2.70;;;1.65;;
71475;SDS011;59286;59.274;17.974;2024-03-25T01:46:14;3.50;;;2.00;;
71475;SDS011;59286;59.274;17.974;2024-03-25T01:48:41;4.70;;;1.67;;
71475;SDS011;59286;59.274;17.974;2024-03-25T01:51:07;4.72;;;1.98;;
71475;SDS011;59286;59.274;17.974;2024-03-25T01:53:32;1.98;;;1.65;;
71475;SDS011;59286;59.274;17.974;2024-03-25T01:55:57;2.70;;;1.67;;
71475;SDS011;59286;59.274;17.974;2024-03-25T01:58:24;3.15;;;1.70;;
71475;SDS011;59286;59.274;17.974;2024-03-25T02:00:50;2.80;;;2.05;;
71475;SDS011;59286;59.274;17.974;2024-03-25T02:03:17;4.55;;;1.83;;
71475;SDS011;59286;59.274;17.974;2024-03-25T02:05:43;3.70;;;1.80;;
71475;SDS011;59286;59.274;17.974;2024-03-25T02:08:09;4.22;;;1.83;;
71475;SDS011;59286;59.274;17.974;2024-03-25T02:10:34;2.67;;;1.90;;
71475;SDS011;59286;59.274;17.974;2024-03-25T02:13:02;2.70;;;1.85;;
71475;SDS011;59286;59.274;17.974;2024-03-25T02:15:28;2.45;;;1.80;;
71475;SDS011;59286;59.274;17.974;2024-03-25T02:17:54;2.88;;;1.88;;
71475;SDS011;59286;59.274;17.974;2024-03-25T02:20:19;2.97;;;1.83;;
71475;SDS011;59286;59.274;17.974;2024-03-25T02:22:45;3.00;;;1.70;;
71475;SDS011;59286;59.274;17.974;2024-03-25T02:25:10;3.25;;;1.88;;
71475;SDS011;59286;59.274;17.974;2024-03-25T02:27:36;3.13;;;1.85;;
71475;SDS011;59286;59.274;17.974;2024-03-25T02:30:05;2.53;;;1.80;;
71475;SDS011;59286;59.274;17.974;2024-03-25T02:32:32;2.92;;;1.60;;
71475;SDS011;59286;59.274;17.974;2024-03-25T02:34:58;1.80;;;1.70;;
71475;SDS011;59286;59.274;17.974;2024-03-25T02:37:24;2.88;;;1.95;;
71475;SDS011;59286;59.274;17.974;2024-03-25T02:39:51;3.30;;;2.08;;
71475;SDS011;59286;59.274;17.974;2024-03-25T02:42:17;2.25;;;1.67;;
71475;SDS011;59286;59.274;17.974;2024-03-25T02:44:43;4.97;;;1.73;;
71475;SDS011;59286;59.274;17.974;2024-03-25T02:47:09;4.40;;;1.83;;
71475;SDS011;59286;59.274;17.974;2024-03-25T02:49:36;2.97;;;1.75;;
71475;SDS011;59286;59.274;17.974;2024-03-25T02:52:02;2.83;;;2.10;;
71475;SDS011;59286;59.274;17.974;2024-03-25T02:54:27;5.20;;;1.60;;
71475;SDS011;59286;59.274;17.974;2024-03-25T02:56:52;4.60;;;2.08;;
71475;SDS011;59286;59.274;17.974;2024-03-25T02:59:18;3.38;;;1.70;;
71475;SDS011;59286;59.274;17.974;2024-03-25T03:01:43;4.35;;;1.75;;
71475;SDS011;59286;59.274;17.974;2024-03-25T03:04:08;2.78;;;1.80;;
71475;SDS011;59286;59.274;17.974;2024-03-25T03:06:33;2.28;;;1.80;;
71475;SDS011;59286;59.274;17.974;2024-03-25T03:08:59;4.38;;;1.77;;
71475;SDS011;59286;59.274;17.974;2024-03-25T03:11:24;3.42;;;1.77;;
71475;SDS011;59286;59.274;17.974;2024-03-25T03:13:49;3.38;;;2.00;;
71475;SDS011;59286;59.274;17.974;2024-03-25T03:16:15;3.35;;;1.67;;
71475;SDS011;59286;59.274;17.974;2024-03-25T03:18:40;2.90;;;1.70;;
71475;SDS011;59286;59.274;17.974;2024-03-25T03:21:05;2.20;;;1.80;;
71475;SDS011;59286;59.274;17.974;2024-03-25T03:23:31;3.50;;;1.75;;
71475;SDS011;59286;59.274;17.974;2024-03-25T03:25:56;4.35;;;1.52;;
71475;SDS011;59286;59.274;17.974;2024-03-25T03:28:24;3.90;;;1.63;;
71475;SDS011;59286;59.274;17.974;2024-03-25T03:30:50;3.05;;;2.10;;
71475;SDS011;59286;59.274;17.974;2024-03-25T03:33:15;1.63;;;1.52;;
71475;SDS011;59286;59.274;17.974;2024-03-25T03:35:42;2.70;;;1.77;;
71475;SDS011;59286;59.274;17.974;2024-03-25T03:38:07;1.55;;;1.45;;
71475;SDS011;59286;59.274;17.974;2024-03-25T03:40:33;3.42;;;1.67;;
71475;SDS011;59286;59.274;17.974;2024-03-25T03:42:58;3.88;;;1.80;;
71475;SDS011;59286;59.274;17.974;2024-03-25T03:45:24;2.45;;;1.55;;
71475;SDS011;59286;59.274;17.974;2024-03-25T03:47:49;4.57;;;1.90;;
71475;SDS011;59286;59.274;17.974;2024-03-25T03:50:15;4.00;;;1.98;;
71475;SDS011;59286;59.274;17.974;2024-03-25T03:52:40;2.42;;;1.55;;
71475;SDS011;59286;59.274;17.974;2024-03-25T03:55:06;4.03;;;1.95;;
71475;SDS011;59286;59.274;17.974;2024-03-25T03:57:31;2.80;;;1.65;;
71475;SDS011;59286;59.274;17.974;2024-03-25T04:00:00;2.95;;;1.50;;
71475;SDS011;59286;59.274;17.974;2024-03-25T04:02:27;2.67;;;1.70;;
71475;SDS011;59286;59.274;17.974;2024-03-25T04:04:53;2.67;;;2.00;;
71475;SDS011;59286;59.274;17.974;2024-03-25T04:07:19;2.83;;;2.10;;
71475;SDS011;59286;59.274;17.974;2024-03-25T04:09:44;2.95;;;1.95;;
71475;SDS011;59286;59.274;17.974;2024-03-25T04:12:09;3.35;;;2.00;;
71475;SDS011;59286;59.274;17.974;2024-03-25T04:14:35;2.17;;;1.70;;
71475;SDS011;59286;59.274;17.974;2024-03-25T04:17:00;2.55;;;1.90;;
71475;SDS011;59286;59.274;17.974;2024-03-25T04:19:26;2.83;;;1.80;;
71475;SDS011;59286;59.274;17.974;2024-03-25T04:21:53;2.50;;;1.77;;
71475;SDS011;59286;59.274;17.974;2024-03-25T04:24:18;5.78;;;2.17;;
71475;SDS011;59286;59.274;17.974;2024-03-25T04:26:44;3.50;;;1.50;;
71475;SDS011;59286;59.274;17.974;2024-03-25T04:29:10;2.60;;;2.00;;
71475;SDS011;59286;59.274;17.974;2024-03-25T04:31:35;4.93;;;1.95;;
71475;SDS011;59286;59.274;17.974;2024-03-25T04:34:02;2.78;;;1.80;;
71475;SDS011;59286;59.274;17.974;2024-03-25T04:36:28;3.97;;;1.83;;
71475;SDS011;59286;59.274;17.974;2024-03-25T04:38:53;2.80;;;1.90;;
71475;SDS011;59286;59.274;17.974;2024-03-25T04:41:19;4.07;;;2.00;;
71475;SDS011;59286;59.274;17.974;2024-03-25T04:43:44;2.00;;;1.85;;
71475;SDS011;59286;59.274;17.974;2024-03-25T04:46:10;3.08;;;1.90;;
71475;SDS011;59286;59.274;17.974;2024-03-25T04:48:36;3.70;;;2.10;;
71475;SDS011;59286;59.274;17.974;2024-03-25T04:51:01;4.85;;;2.22;;
71475;SDS011;59286;59.274;17.974;2024-03-25T04:53:26;3.22;;;1.60;;
71475;SDS011;59286;59.274;17.974;2024-03-25T04:55:51;2.38;;;1.60;;
71475;SDS011;59286;59.274;17.974;2024-03-25T04:58:17;5.15;;;2.00;;
71475;SDS011;59286;59.274;17.974;2024-03-25T05:00:42;2.22;;;1.75;;
71475;SDS011;59286;59.274;17.974;2024-03-25T05:03:07;3.60;;;1.90;;
71475;SDS011;59286;59.274;17.974;2024-03-25T05:05:33;2.72;;;1.70;;
71475;SDS011;59286;59.274;17.974;2024-03-25T05:07:58;2.58;;;1.80;;
71475;SDS011;59286;59.274;17.974;2024-03-25T05:10:24;2.08;;;1.88;;
71475;SDS011;59286;59.274;17.974;2024-03-25T05:12:49;2.70;;;1.80;;
71475;SDS011;59286;59.274;17.974;2024-03-25T05:15:15;2.03;;;1.73;;
71475;SDS011;59286;59.274;17.974;2024-03-25T05:17:40;2.00;;;1.80;;
71475;SDS011;59286;59.274;17.974;2024-03-25T05:20:06;2.17;;;1.50;;
71475;SDS011;59286;59.274;17.974;2024-03-25T05:22:31;3.42;;;1.70;;
71475;SDS011;59286;59.274;17.974;2024-03-25T05:24:57;7.30;;;2.10;;
71475;SDS011;59286;59.274;17.974;2024-03-25T05:27:22;4.40;;;2.08;;
71475;SDS011;59286;59.274;17.974;2024-03-25T05:29:48;3.17;;;2.00;;
71475;SDS011;59286;59.274;17.974;2024-03-25T05:32:14;2.88;;;2.00;;
71475;SDS011;59286;59.274;17.974;2024-03-25T05:34:41;3.22;;;1.90;;
71475;SDS011;59286;59.274;17.974;2024-03-25T05:37:07;6.35;;;2.10;;
71475;SDS011;59286;59.274;17.974;2024-03-25T05:39:32;4.78;;;1.90;;
71475;SDS011;59286;59.274;17.974;2024-03-25T05:41:57;3.67;;;2.17;;
71475;SDS011;59286;59.274;17.974;2024-03-25T05:44:22;2.97;;;1.80;;
71475;SDS011;59286;59.274;17.974;2024-03-25T05:46:48;3.38;;;2.10;;
71475;SDS011;59286;59.274;17.974;2024-03-25T05:49:13;4.10;;;1.90;;
71475;SDS011;59286;59.274;17.974;2024-03-25T05:51:39;3.75;;;1.52;;
71475;SDS011;59286;59.274;17.974;2024-03-25T05:54:04;4.53;;;1.90;;
71475;SDS011;59286;59.274;17.974;2024-03-25T05:56:30;2.90;;;1.98;;
71475;SDS011;59286;59.274;17.974;2024-03-25T05:58:56;7.32;;;1.80;;
71475;SDS011;59286;59.274;17.974;2024-03-25T06:01:22;3.35;;;1.80;;
71475;SDS011;59286;59.274;17.974;2024-03-25T06:03:47;6.03;;;1.88;;
71475;SDS011;59286;59.274;17.974;2024-03-25T06:06:12;3.80;;;1.77;;
71475;SDS011;59286;59.274;17.974;2024-03-25T06:08:38;4.35;;;1.88;;
71475;SDS011;59286;59.274;17.974;2024-03-25T06:11:03;3.90;;;2.03;;
71475;SDS011;59286;59.274;17.974;2024-03-25T06:13:28;2.55;;;1.85;;
71475;SDS011;59286;59.274;17.974;2024-03-25T06:15:54;7.03;;;1.95;;
71475;SDS011;59286;59.274;17.974;2024-03-25T06:18:19;6.40;;;1.90;;
71475;SDS011;59286;59.274;17.974;2024-03-25T06:20:45;2.90;;;2.05;;
71475;SDS011;59286;59.274;17.974;2024-03-25T06:23:10;4.75;;;2.30;;
71475;SDS011;59286;59.274;17.974;2024-03-25T06:25:35;3.60;;;1.83;;
71475;SDS011;59286;59.274;17.974;2024-03-25T06:28:02;6.18;;;1.80;;
71475;SDS011;59286;59.274;17.974;2024-03-25T06:30:28;4.30;;;1.90;;
71475;SDS011;59286;59.274;17.974;2024-03-25T06:33:12;5.32;;;1.90;;
71475;SDS011;59286;59.274;17.974;2024-03-25T06:35:56;4.35;;;2.15;;
71475;SDS011;59286;59.274;17.974;2024-03-25T06:38:21;3.45;;;2.00;;
71475;SDS011;59286;59.274;17.974;2024-03-25T06:40:46;3.80;;;2.10;;
71475;SDS011;59286;59.274;17.974;2024-03-25T06:43:12;2.17;;;1.83;;
71475;SDS011;59286;59.274;17.974;2024-03-25T06:45:37;4.97;;;2.00;;
71475;SDS011;59286;59.274;17.974;2024-03-25T06:48:03;5.20;;;1.80;;
71475;SDS011;59286;59.274;17.974;2024-03-25T06:50:29;4.85;;;1.60;;
71475;SDS011;59286;59.274;17.974;2024-03-25T06:52:54;4.65;;;1.85;;
71475;SDS011;59286;59.274;17.974;2024-03-25T06:55:19;4.38;;;2.05;;
71475;SDS011;59286;59.274;17.974;2024-03-25T06:57:47;5.03;;;1.80;;
71475;SDS011;59286;59.274;17.974;2024-03-25T07:00:13;6.13;;;2.00;;
71475;SDS011;59286;59.274;17.974;2024-03-25T07:02:39;1.60;;;1.50;;
71475;SDS011;59286;59.274;17.974;2024-03-25T07:05:05;5.60;;;2.13;;
71475;SDS011;59286;59.274;17.974;2024-03-25T07:07:31;3.70;;;2.00;;
71475;SDS011;59286;59.274;17.974;2024-03-25T07:09:56;6.43;;;1.90;;
71475;SDS011;59286;59.274;17.974;2024-03-25T07:12:22;3.55;;;1.73;;
71475;SDS011;59286;59.274;17.974;2024-03-25T07:14:47;4.60;;;1.60;;
71475;SDS011;59286;59.274;17.974;2024-03-25T07:17:12;3.75;;;1.60;;
71475;SDS011;59286;59.274;17.974;2024-03-25T07:19:37;5.38;;;2.00;;
71475;SDS011;59286;59.274;17.974;2024-03-25T07:22:03;11.27;;;2.08;;
71475;SDS011;59286;59.274;17.974;2024-03-25T07:24:28;6.28;;;1.75;;
71475;SDS011;59286;59.274;17.974;2024-03-25T07:26:53;4.50;;;1.83;;
71475;SDS011;59286;59.274;17.974;2024-03-25T07:29:19;3.80;;;1.73;;
71475;SDS011;59286;59.274;17.974;2024-03-25T07:31:44;4.47;;;1.98;;
71475;SDS011;59286;59.274;17.974;2024-03-25T07:34:10;5.72;;;1.67;;
71475;SDS011;59286;59.274;17.974;2024-03-25T07:36:36;5.88;;;1.80;;
71475;SDS011;59286;59.274;17.974;2024-03-25T07:39:02;4.07;;;1.40;;
71475;SDS011;59286;59.274;17.974;2024-03-25T07:41:30;3.20;;;1.33;;
71475;SDS011;59286;59.274;17.974;2024-03-25T07:43:55;3.28;;;1.70;;
71475;SDS011;59286;59.274;17.974;2024-03-25T07:46:21;1.85;;;1.45;;
71475;SDS011;59286;59.274;17.974;2024-03-25T07:48:46;4.47;;;1.58;;
71475;SDS011;59286;59.274;17.974;2024-03-25T07:51:11;7.40;;;1.88;;
71475;SDS011;59286;59.274;17.974;2024-03-25T07:53:36;2.28;;;1.42;;
71475;SDS011;59286;59.274;17.974;2024-03-25T07:56:02;6.13;;;1.50;;
71475;SDS011;59286;59.274;17.974;2024-03-25T07:58:29;3.58;;;1.60;;
71475;SDS011;59286;59.274;17.974;2024-03-25T08:00:55;3.63;;;1.60;;
71475;SDS011;59286;59.274;17.974;2024-03-25T08:03:20;2.35;;;1.45;;
71475;SDS011;59286;59.274;17.974;2024-03-25T08:05:45;6.80;;;1.52;;
71475;SDS011;59286;59.274;17.974;2024-03-25T08:08:11;3.60;;;1.10;;
71475;SDS011;59286;59.274;17.974;2024-03-25T08:10:36;1.98;;;1.52;;
71475;SDS011;59286;59.274;17.974;2024-03-25T08:13:02;3.17;;;1.30;;
71475;SDS011;59286;59.274;17.974;2024-03-25T08:15:28;1.23;;;1.02;;
71475;SDS011;59286;59.274;17.974;2024-03-25T08:17:53;1.65;;;1.38;;
71475;SDS011;59286;59.274;17.974;2024-03-25T08:20:19;2.13;;;1.50;;
71475;SDS011;59286;59.274;17.974;2024-03-25T08:22:44;2.03;;;1.40;;
71475;SDS011;59286;59.274;17.974;2024-03-25T08:25:10;2.30;;;1.23;;
71475;SDS011;59286;59.274;17.974;2024-03-25T08:27:36;2.70;;;1.40;;
71475;SDS011;59286;59.274;17.974;2024-03-25T08:30:01;2.30;;;1.20;;
71475;SDS011;59286;59.274;17.974;2024-03-25T08:32:28;3.33;;;1.30;;
71475;SDS011;59286;59.274;17.974;2024-03-25T08:34:54;3.33;;;1.40;;
71475;SDS011;59286;59.274;17.974;2024-03-25T08:37:19;3.60;;;1.48;;
71475;SDS011;59286;59.274;17.974;2024-03-25T08:39:44;2.08;;;1.13;;
71475;SDS011;59286;59.274;17.974;2024-03-25T08:42:10;8.25;;;1.63;;
71475;SDS011;59286;59.274;17.974;2024-03-25T08:44:35;2.55;;;1.30;;
71475;SDS011;59286;59.274;17.974;2024-03-25T08:47:00;2.17;;;1.08;;
71475;SDS011;59286;59.274;17.974;2024-03-25T08:49:25;3.67;;;1.52;;
71475;SDS011;59286;59.274;17.974;2024-03-25T08:51:51;3.20;;;1.35;;
71475;SDS011;59286;59.274;17.974;2024-03-25T08:54:17;3.03;;;1.15;;
71475;SDS011;59286;59.274;17.974;2024-03-25T08:56:42;4.03;;;1.35;;
71475;SDS011;59286;59.274;17.974;2024-03-25T08:59:08;3.92;;;1.10;;
71475;SDS011;59286;59.274;17.974;2024-03-25T09:01:34;1.17;;;1.00;;
71475;SDS011;59286;59.274;17.974;2024-03-25T09:03:59;2.63;;;0.90;;
71475;SDS011;59286;59.274;17.974;2024-03-25T09:06:25;5.57;;;1.17;;
71475;SDS011;59286;59.274;17.974;2024-03-25T09:08:50;2.88;;;1.30;;
71475;SDS011;59286;59.274;17.974;2024-03-25T09:11:34;2.67;;;1.33;;
71475;SDS011;59286;59.274;17.974;2024-03-25T09:14:00;4.40;;;1.25;;
71475;SDS011;59286;59.274;17.974;2024-03-25T09:16:27;5.40;;;1.20;;
71475;SDS011;59286;59.274;17.974;2024-03-25T09:18:53;1.17;;;0.93;;
71475;SDS011;59286;59.274;17.974;2024-03-25T09:21:18;3.15;;;1.20;;
71475;SDS011;59286;59.274;17.974;2024-03-25T09:23:43;2.83;;;0.82;;
71475;SDS011;59286;59.274;17.974;2024-03-25T09:26:09;3.78;;;1.00;;
71475;SDS011;59286;59.274;17.974;2024-03-25T09:28:35;1.15;;;1.05;;
71475;SDS011;59286;59.274;17.974;2024-03-25T09:31:01;4.03;;;0.95;;
71475;SDS011;59286;59.274;17.974;2024-03-25T09:33:26;1.90;;;1.10;;
71475;SDS011;59286;59.274;17.974;2024-03-25T09:35:51;1.17;;;0.90;;
71475;SDS011;59286;59.274;17.974;2024-03-25T09:38:17;2.00;;;0.90;;
71475;SDS011;59286;59.274;17.974;2024-03-25T09:40:42;3.10;;;1.00;;
71475;SDS011;59286;59.274;17.974;2024-03-25T09:43:12;4.32;;;1.50;;
71475;SDS011;59286;59.274;17.974;2024-03-25T09:45:48;2.85;;;1.00;;
71475;SDS011;59286;59.274;17.974;2024-03-25T09:48:15;7.35;;;1.20;;
71475;SDS011;59286;59.274;17.974;2024-03-25T09:50:43;2.10;;;1.30;;
71475;SDS011;59286;59.274;17.974;2024-03-25T09:53:08;3.03;;;1.30;;
71475;SDS011;59286;59.274;17.974;2024-03-25T09:55:34;2.42;;;1.30;;
71475;SDS011;59286;59.274;17.974;2024-03-25T09:57:59;1.55;;;1.15;;
71475;SDS011;59286;59.274;17.974;2024-03-25T10:00:25;2.72;;;1.10;;
71475;SDS011;59286;59.274;17.974;2024-03-25T10:02:51;2.67;;;1.15;;
71475;SDS011;59286;59.274;17.974;2024-03-25T10:05:16;5.20;;;1.67;;
71475;SDS011;59286;59.274;17.974;2024-03-25T10:07:41;4.13;;;1.30;;
71475;SDS011;59286;59.274;17.974;2024-03-25T10:10:07;1.60;;;1.27;;
71475;SDS011;59286;59.274;17.974;2024-03-25T10:12:33;1.98;;;1.20;;
71475;SDS011;59286;59.274;17.974;2024-03-25T10:15:00;3.80;;;1.48;;
71475;SDS011;59286;59.274;17.974;2024-03-25T10:17:26;1.63;;;1.15;;
71475;SDS011;59286;59.274;17.974;2024-03-25T10:19:53;5.13;;;1.50;;
71475;SDS011;59286;59.274;17.974;2024-03-25T10:22:19;5.13;;;1.45;;
71475;SDS011;59286;59.274;17.974;2024-03-25T10:24:46;3.47;;;1.55;;
71475;SDS011;59286;59.274;17.974;2024-03-25T10:27:21;7.40;;;1.35;;
71475;SDS011;59286;59.274;17.974;2024-03-25T10:29:53;4.40;;;1.50;;
71475;SDS011;59286;59.274;17.974;2024-03-25T10:32:22;6.63;;;1.70;;
71475;SDS011;59286;59.274;17.974;2024-03-25T10:34:49;3.40;;;1.42;;
71475;SDS011;59286;59.274;17.974;2024-03-25T10:37:15;3.13;;;1.60;;
71475;SDS011;59286;59.274;17.974;2024-03-25T10:39:43;4.47;;;1.30;;
71475;SDS011;59286;59.274;17.974;2024-03-25T10:42:13;3.15;;;1.40;;
71475;SDS011;59286;59.274;17.974;2024-03-25T10:44:39;1.73;;;1.23;;
71475;SDS011;59286;59.274;17.974;2024-03-25T10:47:06;3.83;;;1.40;;
71475;SDS011;59286;59.274;17.974;2024-03-25T10:49:34;2.95;;;1.48;;
71475;SDS011;59286;59.274;17.974;2024-03-25T10:52:10;2.42;;;1.50;;
71475;SDS011;59286;59.274;17.974;2024-03-25T10:54:36;4.47;;;1.50;;
71475;SDS011;59286;59.274;17.974;2024-03-25T10:57:03;3.22;;;1.55;;
71475;SDS011;59286;59.274;17.974;2024-03-25T10:59:30;1.85;;;1.30;;
71475;SDS011;59286;59.274;17.974;2024-03-25T11:01:55;2.28;;;1.58;;
71475;SDS011;59286;59.274;17.974;2024-03-25T11:04:21;10.88;;;1.70;;
71475;SDS011;59286;59.274;17.974;2024-03-25T11:06:48;2.75;;;1.55;;
71475;SDS011;59286;59.274;17.974;2024-03-25T11:09:23;4.28;;;1.42;;
71475;SDS011;59286;59.274;17.974;2024-03-25T11:11:54;3.72;;;1.65;;
71475;SDS011;59286;59.274;17.974;2024-03-25T11:14:20;4.65;;;1.45;;
71475;SDS011;59286;59.274;17.974;2024-03-25T11:16:52;4.13;;;1.40;;
71475;SDS011;59286;59.274;17.974;2024-03-25T11:19:20;3.97;;;1.50;;
71475;SDS011;59286;59.274;17.974;2024-03-25T11:21:50;2.58;;;1.40;;
71475;SDS011;59286;59.274;17.974;2024-03-25T11:24:15;3.92;;;1.60;;
71475;SDS011;59286;59.274;17.974;2024-03-25T11:26:41;4.53;;;1.85;;
71475;SDS011;59286;59.274;17.974;2024-03-25T11:29:07;6.43;;;1.67;;
71475;SDS011;59286;59.274;17.974;2024-03-25T11:31:33;6.35;;;1.80;;
71475;SDS011;59286;59.274;17.974;2024-03-25T11:34:05;4.75;;;1.48;;
71475;SDS011;59286;59.274;17.974;2024-03-25T11:36:33;3.45;;;1.50;;
71475;SDS011;59286;59.274;17.974;2024-03-25T11:39:00;3.80;;;1.75;;
71475;SDS011;59286;59.274;17.974;2024-03-25T11:41:29;1.95;;;1.42;;
71475;SDS011;59286;59.274;17.974;2024-03-25T11:43:55;2.45;;;1.42;;
71475;SDS011;59286;59.274;17.974;2024-03-25T11:46:25;3.20;;;1.30;;
71475;SDS011;59286;59.274;17.974;2024-03-25T11:48:50;4.70;;;1.50;;
71475;SDS011;59286;59.274;17.974;2024-03-25T11:51:16;5.50;;;1.63;;
71475;SDS011;59286;59.274;17.974;2024-03-25T11:53:42;5.72;;;1.60;;
71475;SDS011;59286;59.274;17.974;2024-03-25T11:56:08;5.20;;;1.48;;
71475;SDS011;59286;59.274;17.974;2024-03-25T11:58:34;2.03;;;1.30;;
71475;SDS011;59286;59.274;17.974;2024-03-25T12:00:59;4.28;;;1.40;;
71475;SDS011;59286;59.274;17.974;2024-03-25T12:03:25;4.75;;;1.65;;
71475;SDS011;59286;59.274;17.974;2024-03-25T12:05:51;4.93;;;1.70;;
71475;SDS011;59286;59.274;17.974;2024-03-25T12:08:16;3.00;;;1.30;;
71475;SDS011;59286;59.274;17.974;2024-03-25T12:10:42;2.08;;;1.52;;
71475;SDS011;59286;59.274;17.974;2024-03-25T12:13:26;3.22;;;2.33;;
71475;SDS011;59286;59.274;17.974;2024-03-25T12:15:52;3.72;;;1.45;;
71475;SDS011;59286;59.274;17.974;2024-03-25T12:18:18;5.75;;;1.60;;
71475;SDS011;59286;59.274;17.974;2024-03-25T12:20:47;2.95;;;1.48;;
71475;SDS011;59286;59.274;17.974;2024-03-25T12:23:13;2.78;;;1.40;;
71475;SDS011;59286;59.274;17.974;2024-03-25T12:25:38;6.47;;;1.50;;
71475;SDS011;59286;59.274;17.974;2024-03-25T12:28:10;3.28;;;1.60;;
71475;SDS011;59286;59.274;17.974;2024-03-25T12:30:41;5.43;;;1.40;;
71475;SDS011;59286;59.274;17.974;2024-03-25T12:33:14;7.03;;;1.27;;
71475;SDS011;59286;59.274;17.974;2024-03-25T12:35:40;4.40;;;1.42;;
71475;SDS011;59286;59.274;17.974;2024-03-25T12:38:06;2.33;;;1.42;;
71475;SDS011;59286;59.274;17.974;2024-03-25T12:40:31;3.95;;;1.02;;
71475;SDS011;59286;59.274;17.974;2024-03-25T12:42:56;3.72;;;1.30;;
71475;SDS011;59286;59.274;17.974;2024-03-25T12:45:22;2.58;;;1.13;;
71475;SDS011;59286;59.274;17.974;2024-03-25T12:47:48;2.22;;;1.20;;
71475;SDS011;59286;59.274;17.974;2024-03-25T12:50:17;1.55;;;1.00;;
71475;SDS011;59286;59.274;17.974;2024-03-25T12:52:43;2.90;;;1.27;;
71475;SDS011;59286;59.274;17.974;2024-03-25T12:55:09;1.65;;;1.08;;
71475;SDS011;59286;59.274;17.974;2024-03-25T12:57:34;4.00;;;1.15;;
71475;SDS011;59286;59.274;17.974;2024-03-25T13:00:00;3.00;;;1.27;;
71475;SDS011;59286;59.274;17.974;2024-03-25T13:02:25;3.85;;;1.48;;
71475;SDS011;59286;59.274;17.974;2024-03-25T13:04:51;2.95;;;1.35;;
71475;SDS011;59286;59.274;17.974;2024-03-25T13:07:17;1.50;;;1.10;;
71475;SDS011;59286;59.274;17.974;2024-03-25T13:09:42;3.70;;;1.23;;
71475;SDS011;59286;59.274;17.974;2024-03-25T13:12:07;2.13;;;1.30;;
71475;SDS011;59286;59.274;17.974;2024-03-25T13:14:33;4.43;;;1.65;;
71475;SDS011;59286;59.274;17.974;2024-03-25T13:16:58;6.70;;;1.50;;
71475;SDS011;59286;59.274;17.974;2024-03-25T13:19:23;3.72;;;1.30;;
71475;SDS011;59286;59.274;17.974;2024-03-25T13:21:49;6.43;;;1.60;;
71475;SDS011;59286;59.274;17.974;2024-03-25T13:24:14;1.75;;;1.30;;
71475;SDS011;59286;59.274;17.974;2024-03-25T13:26:40;5.25;;;1.30;;
71475;SDS011;59286;59.274;17.974;2024-03-25T13:29:05;3.40;;;1.08;;
71475;SDS011;59286;59.274;17.974;2024-03-25T13:31:32;3.85;;;1.42;;
71475;SDS011;59286;59.274;17.974;2024-03-25T13:33:58;2.85;;;1.20;;
71475;SDS011;59286;59.274;17.974;2024-03-25T13:36:23;3.90;;;1.30;;
71475;SDS011;59286;59.274;17.974;2024-03-25T13:38:48;3.35;;;1.05;;
71475;SDS011;59286;59.274;17.974;2024-03-25T13:41:14;2.50;;;1.17;;
71475;SDS011;59286;59.274;17.974;2024-03-25T13:43:42;3.53;;;1.38;;
71475;SDS011;59286;59.274;17.974;2024-03-25T13:46:08;6.47;;;1.50;;
71475;SDS011;59286;59.274;17.974;2024-03-25T13:48:34;1.40;;;0.90;;
71475;SDS011;59286;59.274;17.974;2024-03-25T13:50:59;2.60;;;1.15;;
71475;SDS011;59286;59.274;17.974;2024-03-25T13:53:24;2.72;;;1.13;;
71475;SDS011;59286;59.274;17.974;2024-03-25T13:55:50;2.45;;;1.13;;
71475;SDS011;59286;59.274;17.974;2024-03-25T13:58:16;1.80;;;1.40;;
71475;SDS011;59286;59.274;17.974;2024-03-25T14:00:41;4.13;;;1.23;;
71475;SDS011;59286;59.274;17.974;2024-03-25T14:03:06;2.13;;;1.15;;
71475;SDS011;59286;59.274;17.974;2024-03-25T14:05:32;4.85;;;1.17;;
71475;SDS011;59286;59.274;17.974;2024-03-25T14:07:57;6.65;;;1.50;;
71475;SDS011;59286;59.274;17.974;2024-03-25T14:10:23;2.50;;;1.30;;
71475;SDS011;59286;59.274;17.974;2024-03-25T14:12:48;6.25;;;1.95;;
71475;SDS011;59286;59.274;17.974;2024-03-25T14:15:13;8.10;;;1.35;;
71475;SDS011;59286;59.274;17.974;2024-03-25T14:17:39;6.60;;;1.45;;
71475;SDS011;59286;59.274;17.974;2024-03-25T14:20:04;5.07;;;1.38;;
71475;SDS011;59286;59.274;17.974;2024-03-25T14:22:31;7.07;;;1.20;;
71475;SDS011;59286;59.274;17.974;2024-03-25T14:24:57;3.17;;;1.20;;
71475;SDS011;59286;59.274;17.974;2024-03-25T14:27:23;5.85;;;1.40;;